sensor_id;sensor_type;location;lat;lon;timestamp;pressure;altitude;pressure_sealevel;temperature;humidity
16806;BME280;8520;50.102;20.010;2023-03-13T00:01:11;97793.91;;;7.42;47.48
16806;BME280;8520;50.102;20.010;2023-03-13T00:03:39;97795.63;;;7.54;47.27
16806;BME280;8520;50.102;20.010;2023-03-13T00:06:08;97797.69;;;7.45;47.90
16806;BME280;8520;50.102;20.010;2023-03-13T00:08:37;97791.19;;;7.33;47.73
16806;BME280;8520;50.102;20.010;2023-03-13T00:11:08;97802.13;;;7.42;47.79
16806;BME280;8520;50.102;20.010;2023-03-13T00:13:36;97804.56;;;6.92;48.75
16806;BME280;8520;50.102;20.010;2023-03-13T00:16:06;97807.59;;;6.94;48.66
16806;BME280;8520;50.102;20.010;2023-03-13T00:18:35;97810.16;;;6.74;49.67
16806;BME280;8520;50.102;20.010;2023-03-13T00:21:05;97799.72;;;6.63;49.86
16806;BME280;8520;50.102;20.010;2023-03-13T00:23:35;97800.81;;;6.57;50.38
16806;BME280;8520;50.102;20.010;2023-03-13T00:26:05;97807.22;;;6.54;51.16
16806;BME280;8520;50.102;20.010;2023-03-13T00:28:36;97807.72;;;6.76;51.17
16806;BME280;8520;50.102;20.010;2023-03-13T00:31:06;97794.09;;;7.15;50.88
16806;BME280;8520;50.102;20.010;2023-03-13T00:33:37;97791.97;;;6.62;52.26
16806;BME280;8520;50.102;20.010;2023-03-13T00:36:07;97785.16;;;6.81;51.81
16806;BME280;8520;50.102;20.010;2023-03-13T00:38:36;97786.13;;;6.93;51.91
16806;BME280;8520;50.102;20.010;2023-03-13T00:41:06;97775.66;;;6.58;52.89
16806;BME280;8520;50.102;20.010;2023-03-13T00:43:35;97770.13;;;6.67;52.45
16806;BME280;8520;50.102;20.010;2023-03-13T00:46:04;97769.41;;;7.30;51.33
16806;BME280;8520;50.102;20.010;2023-03-13T00:48:32;97767.81;;;7.23;51.30
16806;BME280;8520;50.102;20.010;2023-03-13T00:51:02;97762.06;;;7.12;52.04
16806;BME280;8520;50.102;20.010;2023-03-13T00:53:30;97769.06;;;7.37;51.79
16806;BME280;8520;50.102;20.010;2023-03-13T00:56:01;97768.31;;;7.36;51.94
16806;BME280;8520;50.102;20.010;2023-03-13T00:58:32;97765.25;;;7.34;51.95
16806;BME280;8520;50.102;20.010;2023-03-13T01:01:10;97748.09;;;7.63;51.55
16806;BME280;8520;50.102;20.010;2023-03-13T01:03:39;97745.81;;;7.47;52.06
16806;BME280;8520;50.102;20.010;2023-03-13T01:06:10;97743.84;;;7.62;52.23
16806;BME280;8520;50.102;20.010;2023-03-13T01:08:39;97745.47;;;7.30;53.21
16806;BME280;8520;50.102;20.010;2023-03-13T01:11:08;97739.00;;;7.42;53.63
16806;BME280;8520;50.102;20.010;2023-03-13T01:13:37;97729.41;;;6.99;54.97
16806;BME280;8520;50.102;20.010;2023-03-13T01:16:08;97719.59;;;7.07;55.43
16806;BME280;8520;50.102;20.010;2023-03-13T01:18:39;97717.34;;;6.82;56.49
16806;BME280;8520;50.102;20.010;2023-03-13T01:21:09;97719.72;;;6.89;57.06
16806;BME280;8520;50.102;20.010;2023-03-13T01:23:37;97720.66;;;6.86;57.53
16806;BME280;8520;50.102;20.010;2023-03-13T01:26:07;97718.91;;;6.97;57.66
16806;BME280;8520;50.102;20.010;2023-03-13T01:28:37;97726.50;;;6.79;58.00
16806;BME280;8520;50.102;20.010;2023-03-13T01:31:14;97726.25;;;6.44;59.44
16806;BME280;8520;50.102;20.010;2023-03-13T01:33:44;97728.00;;;6.56;60.21
16806;BME280;8520;50.102;20.010;2023-03-13T01:36:14;97724.38;;;6.26;61.54
16806;BME280;8520;50.102;20.010;2023-03-13T01:38:47;97722.25;;;6.54;60.93
16806;BME280;8520;50.102;20.010;2023-03-13T01:41:16;97718.72;;;6.29;61.62
16806;BME280;8520;50.102;20.010;2023-03-13T01:43:45;97724.00;;;6.90;60.85
16806;BME280;8520;50.102;20.010;2023-03-13T01:46:17;97719.72;;;6.65;61.42
16806;BME280;8520;50.102;20.010;2023-03-13T01:49:09;97730.47;;;6.78;61.52
16806;BME280;8520;50.102;20.010;2023-03-13T01:51:56;97733.06;;;6.48;62.79
16806;BME280;8520;50.102;20.010;2023-03-13T01:54:29;97729.47;;;6.90;61.84
16806;BME280;8520;50.102;20.010;2023-03-13T01:57:01;97742.31;;;6.84;61.87
16806;BME280;8520;50.102;20.010;2023-03-13T01:59:33;97747.84;;;6.51;63.32
16806;BME280;8520;50.102;20.010;2023-03-13T02:02:06;97735.47;;;6.55;63.63
16806;BME280;8520;50.102;20.010;2023-03-13T02:04:38;97750.84;;;6.62;63.71
16806;BME280;8520;50.102;20.010;2023-03-13T02:07:10;97755.88;;;6.87;62.93
16806;BME280;8520;50.102;20.010;2023-03-13T02:09:41;97755.50;;;6.94;62.87
16806;BME280;8520;50.102;20.010;2023-03-13T02:12:14;97749.69;;;6.78;63.43
16806;BME280;8520;50.102;20.010;2023-03-13T02:14:45;97763.78;;;6.61;63.64
16806;BME280;8520;50.102;20.010;2023-03-13T02:17:16;97751.16;;;7.26;62.14
16806;BME280;8520;50.102;20.010;2023-03-13T02:19:46;97748.13;;;7.24;62.22
16806;BME280;8520;50.102;20.010;2023-03-13T02:22:21;97748.50;;;7.32;61.75
16806;BME280;8520;50.102;20.010;2023-03-13T02:24:54;97756.09;;;7.37;62.15
16806;BME280;8520;50.102;20.010;2023-03-13T02:27:26;97758.72;;;7.70;61.17
16806;BME280;8520;50.102;20.010;2023-03-13T02:29:55;97764.28;;;7.61;61.10
16806;BME280;8520;50.102;20.010;2023-03-13T02:32:24;97764.84;;;7.50;61.86
16806;BME280;8520;50.102;20.010;2023-03-13T02:34:56;97768.06;;;7.93;60.67
16806;BME280;8520;50.102;20.010;2023-03-13T02:37:27;97779.44;;;7.57;61.74
16806;BME280;8520;50.102;20.010;2023-03-13T02:39:57;97777.72;;;7.59;61.46
16806;BME280;8520;50.102;20.010;2023-03-13T02:42:30;97783.88;;;7.15;62.92
16806;BME280;8520;50.102;20.010;2023-03-13T02:44:59;97781.78;;;7.49;61.87
16806;BME280;8520;50.102;20.010;2023-03-13T02:47:27;97787.47;;;7.45;62.33
16806;BME280;8520;50.102;20.010;2023-03-13T02:49:55;97793.75;;;7.61;61.95
16806;BME280;8520;50.102;20.010;2023-03-13T02:52:26;97793.25;;;7.77;61.19
16806;BME280;8520;50.102;20.010;2023-03-13T02:54:58;97799.88;;;7.55;61.14
16806;BME280;8520;50.102;20.010;2023-03-13T02:57:28;97802.09;;;7.96;61.12
16806;BME280;8520;50.102;20.010;2023-03-13T02:59:57;97800.38;;;7.83;60.80
16806;BME280;8520;50.102;20.010;2023-03-13T03:02:26;97786.84;;;7.80;61.13
16806;BME280;8520;50.102;20.010;2023-03-13T03:04:54;97788.63;;;7.83;61.33
16806;BME280;8520;50.102;20.010;2023-03-13T03:07:22;97797.06;;;7.79;61.74
16806;BME280;8520;50.102;20.010;2023-03-13T03:09:51;97791.38;;;7.83;61.48
16806;BME280;8520;50.102;20.010;2023-03-13T03:12:19;97786.91;;;7.86;61.39
16806;BME280;8520;50.102;20.010;2023-03-13T03:14:49;97787.69;;;7.86;61.29
16806;BME280;8520;50.102;20.010;2023-03-13T03:17:17;97801.16;;;7.69;61.88
16806;BME280;8520;50.102;20.010;2023-03-13T03:19:46;97805.41;;;7.70;62.12
16806;BME280;8520;50.102;20.010;2023-03-13T03:22:14;97806.47;;;7.88;61.59
16806;BME280;8520;50.102;20.010;2023-03-13T03:24:42;97801.59;;;7.68;62.35
16806;BME280;8520;50.102;20.010;2023-03-13T03:27:10;97807.38;;;7.84;61.73
16806;BME280;8520;50.102;20.010;2023-03-13T03:29:45;97797.59;;;7.54;62.62
16806;BME280;8520;50.102;20.010;2023-03-13T03:32:15;97799.69;;;7.59;62.73
16806;BME280;8520;50.102;20.010;2023-03-13T03:34:43;97800.91;;;7.58;62.85
16806;BME280;8520;50.102;20.010;2023-03-13T03:37:18;97799.50;;;7.63;63.03
16806;BME280;8520;50.102;20.010;2023-03-13T03:39:46;97799.78;;;7.26;63.95
16806;BME280;8520;50.102;20.010;2023-03-13T03:42:14;97797.06;;;7.65;63.23
16806;BME280;8520;50.102;20.010;2023-03-13T03:44:43;97800.91;;;7.58;63.08
16806;BME280;8520;50.102;20.010;2023-03-13T03:47:12;97799.44;;;7.72;62.89
16806;BME280;8520;50.102;20.010;2023-03-13T03:49:45;97798.03;;;8.06;62.18
16806;BME280;8520;50.102;20.010;2023-03-13T03:52:14;97801.91;;;7.84;62.80
16806;BME280;8520;50.102;20.010;2023-03-13T03:54:43;97803.88;;;7.84;62.62
16806;BME280;8520;50.102;20.010;2023-03-13T03:57:13;97791.28;;;7.92;62.70
16806;BME280;8520;50.102;20.010;2023-03-13T03:59:43;97801.13;;;7.84;63.28
16806;BME280;8520;50.102;20.010;2023-03-13T04:02:11;97801.72;;;7.35;64.14
16806;BME280;8520;50.102;20.010;2023-03-13T04:04:41;97802.13;;;6.94;65.47
16806;BME280;8520;50.102;20.010;2023-03-13T04:07:24;97800.47;;;7.60;64.44
16806;BME280;8520;50.102;20.010;2023-03-13T04:09:53;97799.59;;;7.30;64.97
16806;BME280;8520;50.102;20.010;2023-03-13T04:12:30;97801.66;;;7.44;65.24
16806;BME280;8520;50.102;20.010;2023-03-13T04:14:58;97800.28;;;7.63;64.51
16806;BME280;8520;50.102;20.010;2023-03-13T04:17:26;97810.31;;;7.51;65.04
16806;BME280;8520;50.102;20.010;2023-03-13T04:19:54;97805.56;;;7.52;65.04
16806;BME280;8520;50.102;20.010;2023-03-13T04:22:24;97802.25;;;7.77;64.71
16806;BME280;8520;50.102;20.010;2023-03-13T04:24:56;97811.00;;;7.91;64.35
16806;BME280;8520;50.102;20.010;2023-03-13T04:27:26;97814.09;;;7.54;65.47
16806;BME280;8520;50.102;20.010;2023-03-13T04:29:55;97812.47;;;7.23;66.70
16806;BME280;8520;50.102;20.010;2023-03-13T04:32:23;97809.56;;;7.95;64.59
16806;BME280;8520;50.102;20.010;2023-03-13T04:35:11;97800.09;;;8.11;64.47
16806;BME280;8520;50.102;20.010;2023-03-13T04:38:04;97799.44;;;7.72;65.33
16806;BME280;8520;50.102;20.010;2023-03-13T04:40:48;97798.38;;;8.28;64.03
16806;BME280;8520;50.102;20.010;2023-03-13T04:43:30;97794.13;;;8.12;64.61
16806;BME280;8520;50.102;20.010;2023-03-13T04:46:14;97806.06;;;7.80;66.05
16806;BME280;8520;50.102;20.010;2023-03-13T04:49:05;97801.44;;;8.01;65.13
16806;BME280;8520;50.102;20.010;2023-03-13T04:51:37;97811.19;;;8.17;64.95
16806;BME280;8520;50.102;20.010;2023-03-13T04:54:20;97808.34;;;8.11;65.35
16806;BME280;8520;50.102;20.010;2023-03-13T04:57:08;97806.16;;;7.71;66.04
16806;BME280;8520;50.102;20.010;2023-03-13T05:00:00;97802.28;;;7.92;65.81
16806;BME280;8520;50.102;20.010;2023-03-13T05:02:51;97807.97;;;8.18;65.59
16806;BME280;8520;50.102;20.010;2023-03-13T05:05:19;97793.00;;;7.90;66.50
16806;BME280;8520;50.102;20.010;2023-03-13T05:07:54;97799.06;;;7.79;66.83
16806;BME280;8520;50.102;20.010;2023-03-13T05:10:42;97799.59;;;7.30;68.46
16806;BME280;8520;50.102;20.010;2023-03-13T05:13:29;97793.94;;;7.72;67.78
16806;BME280;8520;50.102;20.010;2023-03-13T05:16:08;97791.44;;;7.59;68.47
16806;BME280;8520;50.102;20.010;2023-03-13T05:19:15;97799.81;;;7.79;67.74
16806;BME280;8520;50.102;20.010;2023-03-13T05:22:02;97799.53;;;7.92;67.83
16806;BME280;8520;50.102;20.010;2023-03-13T05:24:33;97794.88;;;8.28;67.12
16806;BME280;8520;50.102;20.010;2023-03-13T05:27:18;97787.59;;;8.10;67.44
16806;BME280;8520;50.102;20.010;2023-03-13T05:30:10;97782.09;;;7.95;67.85
16806;BME280;8520;50.102;20.010;2023-03-13T05:33:02;97772.88;;;8.13;67.44
16806;BME280;8520;50.102;20.010;2023-03-13T05:35:44;97761.75;;;7.87;68.58
16806;BME280;8520;50.102;20.010;2023-03-13T05:38:29;97761.81;;;8.07;67.89
16806;BME280;8520;50.102;20.010;2023-03-13T05:41:10;97767.31;;;8.07;68.10
16806;BME280;8520;50.102;20.010;2023-03-13T05:43:58;97756.88;;;8.11;68.29
16806;BME280;8520;50.102;20.010;2023-03-13T05:46:49;97759.03;;;8.22;68.09
16806;BME280;8520;50.102;20.010;2023-03-13T05:49:36;97758.94;;;8.31;67.91
16806;BME280;8520;50.102;20.010;2023-03-13T05:52:24;97755.03;;;8.38;68.04
16806;BME280;8520;50.102;20.010;2023-03-13T05:55:12;97754.38;;;8.43;67.91
16806;BME280;8520;50.102;20.010;2023-03-13T05:57:43;97760.16;;;8.30;68.37
16806;BME280;8520;50.102;20.010;2023-03-13T06:00:30;97752.56;;;8.40;68.51
16806;BME280;8520;50.102;20.010;2023-03-13T06:03:22;97758.50;;;8.53;67.62
16806;BME280;8520;50.102;20.010;2023-03-13T06:05:56;97754.00;;;8.91;67.29
16806;BME280;8520;50.102;20.010;2023-03-13T06:08:36;97765.94;;;8.32;68.54
16806;BME280;8520;50.102;20.010;2023-03-13T06:11:04;97773.19;;;8.65;68.50
16806;BME280;8520;50.102;20.010;2023-03-13T06:13:33;97764.53;;;8.72;68.00
16806;BME280;8520;50.102;20.010;2023-03-13T06:16:22;97759.09;;;8.78;68.06
16806;BME280;8520;50.102;20.010;2023-03-13T06:18:56;97764.19;;;8.85;67.58
16806;BME280;8520;50.102;20.010;2023-03-13T06:21:25;97758.06;;;8.75;67.90
16806;BME280;8520;50.102;20.010;2023-03-13T06:23:53;97767.47;;;8.68;68.05
16806;BME280;8520;50.102;20.010;2023-03-13T06:26:21;97766.03;;;8.73;68.37
16806;BME280;8520;50.102;20.010;2023-03-13T06:28:50;97763.84;;;9.18;68.01
16806;BME280;8520;50.102;20.010;2023-03-13T06:31:19;97758.94;;;9.48;66.94
16806;BME280;8520;50.102;20.010;2023-03-13T06:33:51;97763.28;;;8.73;68.68
16806;BME280;8520;50.102;20.010;2023-03-13T06:36:20;97760.50;;;8.88;68.48
16806;BME280;8520;50.102;20.010;2023-03-13T06:38:48;97754.94;;;9.49;67.09
16806;BME280;8520;50.102;20.010;2023-03-13T06:41:17;97749.25;;;9.52;66.69
16806;BME280;8520;50.102;20.010;2023-03-13T06:43:45;97745.34;;;9.91;65.52
16806;BME280;8520;50.102;20.010;2023-03-13T06:46:16;97744.09;;;9.66;66.89
16806;BME280;8520;50.102;20.010;2023-03-13T06:48:45;97748.22;;;10.07;65.65
16806;BME280;8520;50.102;20.010;2023-03-13T06:51:16;97747.88;;;9.42;68.19
16806;BME280;8520;50.102;20.010;2023-03-13T06:53:45;97749.50;;;9.54;67.47
16806;BME280;8520;50.102;20.010;2023-03-13T06:56:14;97752.91;;;9.44;68.11
16806;BME280;8520;50.102;20.010;2023-03-13T06:58:45;97749.53;;;9.60;68.01
16806;BME280;8520;50.102;20.010;2023-03-13T07:01:15;97745.19;;;9.74;67.31
16806;BME280;8520;50.102;20.010;2023-03-13T07:03:46;97739.72;;;9.53;67.92
16806;BME280;8520;50.102;20.010;2023-03-13T07:06:16;97731.06;;;9.66;68.03
16806;BME280;8520;50.102;20.010;2023-03-13T07:08:45;97729.88;;;9.99;66.23
16806;BME280;8520;50.102;20.010;2023-03-13T07:11:13;97728.31;;;10.29;66.01
16806;BME280;8520;50.102;20.010;2023-03-13T07:13:41;97719.78;;;10.27;65.94
16806;BME280;8520;50.102;20.010;2023-03-13T07:16:12;97729.69;;;10.45;65.44
16806;BME280;8520;50.102;20.010;2023-03-13T07:18:40;97726.34;;;10.78;64.49
16806;BME280;8520;50.102;20.010;2023-03-13T07:21:11;97728.59;;;10.74;64.51
16806;BME280;8520;50.102;20.010;2023-03-13T07:23:40;97732.19;;;10.80;64.44
16806;BME280;8520;50.102;20.010;2023-03-13T07:26:12;97730.94;;;10.81;64.11
16806;BME280;8520;50.102;20.010;2023-03-13T07:28:41;97730.31;;;10.66;64.53
16806;BME280;8520;50.102;20.010;2023-03-13T07:31:11;97732.47;;;10.51;65.52
16806;BME280;8520;50.102;20.010;2023-03-13T07:33:41;97728.00;;;10.53;64.98
16806;BME280;8520;50.102;20.010;2023-03-13T07:36:09;97724.00;;;11.08;64.31
16806;BME280;8520;50.102;20.010;2023-03-13T07:38:38;97722.97;;;11.00;63.95
16806;BME280;8520;50.102;20.010;2023-03-13T07:41:12;97718.28;;;11.34;63.24
16806;BME280;8520;50.102;20.010;2023-03-13T07:43:41;97715.03;;;11.41;63.44
16806;BME280;8520;50.102;20.010;2023-03-13T07:46:11;97711.78;;;11.37;63.29
16806;BME280;8520;50.102;20.010;2023-03-13T07:48:41;97709.03;;;11.48;62.74
16806;BME280;8520;50.102;20.010;2023-03-13T07:51:12;97711.94;;;10.57;65.16
16806;BME280;8520;50.102;20.010;2023-03-13T07:53:40;97704.97;;;10.67;65.55
16806;BME280;8520;50.102;20.010;2023-03-13T07:56:10;97713.44;;;11.07;64.50
16806;BME280;8520;50.102;20.010;2023-03-13T07:58:41;97695.22;;;10.78;65.38
16806;BME280;8520;50.102;20.010;2023-03-13T08:01:10;97691.81;;;10.94;65.39
16806;BME280;8520;50.102;20.010;2023-03-13T08:03:39;97697.66;;;11.13;64.31
16806;BME280;8520;50.102;20.010;2023-03-13T08:06:09;97685.88;;;11.18;64.83
16806;BME280;8520;50.102;20.010;2023-03-13T08:08:37;97687.44;;;11.52;63.66
16806;BME280;8520;50.102;20.010;2023-03-13T08:11:07;97698.19;;;11.34;63.97
16806;BME280;8520;50.102;20.010;2023-03-13T08:13:36;97704.25;;;10.73;65.71
16806;BME280;8520;50.102;20.010;2023-03-13T08:16:08;97685.81;;;10.47;66.15
16806;BME280;8520;50.102;20.010;2023-03-13T08:18:39;97697.16;;;11.09;64.99
16806;BME280;8520;50.102;20.010;2023-03-13T08:21:09;97679.38;;;11.27;64.38
16806;BME280;8520;50.102;20.010;2023-03-13T08:23:37;97677.03;;;11.03;64.96
16806;BME280;8520;50.102;20.010;2023-03-13T08:26:07;97682.25;;;10.84;65.47
16806;BME280;8520;50.102;20.010;2023-03-13T08:28:37;97677.53;;;11.07;64.99
16806;BME280;8520;50.102;20.010;2023-03-13T08:31:08;97672.50;;;10.94;65.25
16806;BME280;8520;50.102;20.010;2023-03-13T08:33:37;97678.59;;;11.20;64.81
16806;BME280;8520;50.102;20.010;2023-03-13T08:36:10;97668.59;;;11.51;63.60
16806;BME280;8520;50.102;20.010;2023-03-13T08:38:39;97674.41;;;11.64;63.53
16806;BME280;8520;50.102;20.010;2023-03-13T08:41:12;97673.84;;;11.38;64.02
16806;BME280;8520;50.102;20.010;2023-03-13T08:43:41;97672.88;;;11.97;62.31
16806;BME280;8520;50.102;20.010;2023-03-13T08:46:11;97672.63;;;12.23;62.28
16806;BME280;8520;50.102;20.010;2023-03-13T08:48:40;97675.63;;;12.25;61.61
16806;BME280;8520;50.102;20.010;2023-03-13T08:51:09;97660.28;;;12.07;61.18
16806;BME280;8520;50.102;20.010;2023-03-13T08:53:39;97662.03;;;11.43;63.23
16806;BME280;8520;50.102;20.010;2023-03-13T08:56:08;97660.81;;;12.00;62.55
16806;BME280;8520;50.102;20.010;2023-03-13T08:58:37;97656.78;;;12.23;61.61
16806;BME280;8520;50.102;20.010;2023-03-13T09:01:07;97653.28;;;11.50;62.53
16806;BME280;8520;50.102;20.010;2023-03-13T09:03:37;97626.91;;;11.60;62.55
16806;BME280;8520;50.102;20.010;2023-03-13T09:06:06;97655.56;;;11.91;62.49
16806;BME280;8520;50.102;20.010;2023-03-13T09:08:35;97636.63;;;12.40;61.04
16806;BME280;8520;50.102;20.010;2023-03-13T09:11:06;97637.38;;;12.46;60.28
16806;BME280;8520;50.102;20.010;2023-03-13T09:13:37;97645.47;;;11.93;61.68
16806;BME280;8520;50.102;20.010;2023-03-13T09:16:07;97649.22;;;12.35;60.40
16806;BME280;8520;50.102;20.010;2023-03-13T09:18:37;97641.13;;;12.43;60.42
16806;BME280;8520;50.102;20.010;2023-03-13T09:21:07;97637.22;;;12.79;59.14
16806;BME280;8520;50.102;20.010;2023-03-13T09:23:36;97635.03;;;13.08;59.26
16806;BME280;8520;50.102;20.010;2023-03-13T09:26:05;97628.81;;;12.96;58.88
16806;BME280;8520;50.102;20.010;2023-03-13T09:28:33;97629.03;;;13.04;58.83
16806;BME280;8520;50.102;20.010;2023-03-13T09:31:08;97622.72;;;12.51;59.18
16806;BME280;8520;50.102;20.010;2023-03-13T09:33:39;97605.63;;;12.52;59.23
16806;BME280;8520;50.102;20.010;2023-03-13T09:36:08;97612.63;;;12.64;58.61
16806;BME280;8520;50.102;20.010;2023-03-13T09:38:37;97614.06;;;12.82;58.76
16806;BME280;8520;50.102;20.010;2023-03-13T09:41:19;97619.34;;;13.27;57.24
16806;BME280;8520;50.102;20.010;2023-03-13T09:43:52;97620.22;;;13.05;57.91
16806;BME280;8520;50.102;20.010;2023-03-13T09:46:24;97618.25;;;13.00;58.45
16806;BME280;8520;50.102;20.010;2023-03-13T09:48:57;97630.47;;;12.69;57.91
16806;BME280;8520;50.102;20.010;2023-03-13T09:51:28;97609.94;;;12.48;58.03
16806;BME280;8520;50.102;20.010;2023-03-13T09:54:00;97608.53;;;12.77;57.45
16806;BME280;8520;50.102;20.010;2023-03-13T09:56:38;97623.13;;;12.77;57.98
16806;BME280;8520;50.102;20.010;2023-03-13T09:59:14;97617.22;;;13.39;56.32
16806;BME280;8520;50.102;20.010;2023-03-13T10:01:46;97594.53;;;12.58;57.83
16806;BME280;8520;50.102;20.010;2023-03-13T10:04:31;97597.53;;;12.65;57.79
16806;BME280;8520;50.102;20.010;2023-03-13T10:07:02;97606.59;;;12.60;58.08
16806;BME280;8520;50.102;20.010;2023-03-13T10:09:32;97610.06;;;13.19;57.03
16806;BME280;8520;50.102;20.010;2023-03-13T10:12:06;97583.91;;;13.44;56.79
16806;BME280;8520;50.102;20.010;2023-03-13T10:14:43;97590.03;;;13.02;57.18
16806;BME280;8520;50.102;20.010;2023-03-13T10:17:21;97591.53;;;13.03;57.48
16806;BME280;8520;50.102;20.010;2023-03-13T10:19:56;97576.88;;;13.49;56.58
16806;BME280;8520;50.102;20.010;2023-03-13T10:22:28;97585.94;;;13.49;56.90
16806;BME280;8520;50.102;20.010;2023-03-13T10:25:02;97579.75;;;13.62;56.80
16806;BME280;8520;50.102;20.010;2023-03-13T10:27:41;97575.97;;;13.65;56.60
16806;BME280;8520;50.102;20.010;2023-03-13T10:30:19;97579.63;;;13.79;55.98
16806;BME280;8520;50.102;20.010;2023-03-13T10:32:48;97578.94;;;13.73;55.92
16806;BME280;8520;50.102;20.010;2023-03-13T10:35:22;97587.25;;;13.73;55.79
16806;BME280;8520;50.102;20.010;2023-03-13T10:38:00;97567.09;;;13.97;55.84
16806;BME280;8520;50.102;20.010;2023-03-13T10:40:29;97555.59;;;13.87;55.33
16806;BME280;8520;50.102;20.010;2023-03-13T10:43:03;97568.84;;;13.70;55.13
16806;BME280;8520;50.102;20.010;2023-03-13T10:45:33;97555.63;;;13.57;55.25
16806;BME280;8520;50.102;20.010;2023-03-13T10:48:11;97546.00;;;13.88;54.81
16806;BME280;8520;50.102;20.010;2023-03-13T10:50:43;97532.34;;;14.15;54.22
16806;BME280;8520;50.102;20.010;2023-03-13T10:53:24;97539.25;;;14.27;53.37
16806;BME280;8520;50.102;20.010;2023-03-13T10:56:03;97544.41;;;14.98;52.47
16806;BME280;8520;50.102;20.010;2023-03-13T10:58:40;97564.88;;;14.39;53.75
16806;BME280;8520;50.102;20.010;2023-03-13T11:01:21;97525.31;;;14.32;53.52
16806;BME280;8520;50.102;20.010;2023-03-13T11:03:51;97531.66;;;14.71;52.66
16806;BME280;8520;50.102;20.010;2023-03-13T11:06:27;97526.38;;;14.48;53.05
16806;BME280;8520;50.102;20.010;2023-03-13T11:09:03;97538.38;;;14.38;52.21
16806;BME280;8520;50.102;20.010;2023-03-13T11:11:46;97558.47;;;13.76;52.78
16806;BME280;8520;50.102;20.010;2023-03-13T11:14:17;97519.69;;;14.38;51.99
16806;BME280;8520;50.102;20.010;2023-03-13T11:16:48;97517.13;;;14.97;50.91
16806;BME280;8520;50.102;20.010;2023-03-13T11:19:37;97506.94;;;14.86;50.36
16806;BME280;8520;50.102;20.010;2023-03-13T11:22:32;97511.94;;;15.06;50.30
16806;BME280;8520;50.102;20.010;2023-03-13T11:25:12;97498.72;;;15.58;49.15
16806;BME280;8520;50.102;20.010;2023-03-13T11:27:49;97486.38;;;15.53;48.65
16806;BME280;8520;50.102;20.010;2023-03-13T11:30:37;97476.31;;;14.16;50.65
16806;BME280;8520;50.102;20.010;2023-03-13T11:33:16;97491.94;;;14.19;51.34
16806;BME280;8520;50.102;20.010;2023-03-13T11:35:48;97485.72;;;15.92;48.77
16806;BME280;8520;50.102;20.010;2023-03-13T11:38:26;97481.31;;;15.70;48.02
16806;BME280;8520;50.102;20.010;2023-03-13T11:41:01;97494.31;;;15.49;48.71
16806;BME280;8520;50.102;20.010;2023-03-13T11:43:46;97470.19;;;14.61;49.89
16806;BME280;8520;50.102;20.010;2023-03-13T11:46:24;97475.06;;;14.55;50.13
16806;BME280;8520;50.102;20.010;2023-03-13T11:52:26;97470.19;;;14.42;50.14
16806;BME280;8520;50.102;20.010;2023-03-13T11:55:24;97477.00;;;14.22;50.14
16806;BME280;8520;50.102;20.010;2023-03-13T11:58:02;97452.34;;;14.88;48.45
16806;BME280;8520;50.102;20.010;2023-03-13T12:00:35;97448.88;;;15.01;48.55
16806;BME280;8520;50.102;20.010;2023-03-13T12:03:10;97439.00;;;15.45;48.03
16806;BME280;8520;50.102;20.010;2023-03-13T12:05:44;97438.47;;;15.34;47.75
16806;BME280;8520;50.102;20.010;2023-03-13T12:08:17;97419.38;;;15.83;46.86
16806;BME280;8520;50.102;20.010;2023-03-13T12:10:54;97420.59;;;16.56;45.92
16806;BME280;8520;50.102;20.010;2023-03-13T12:13:29;97434.16;;;14.74;47.22
16806;BME280;8520;50.102;20.010;2023-03-13T12:16:01;97418.91;;;15.66;46.69
16806;BME280;8520;50.102;20.010;2023-03-13T12:18:35;97422.72;;;15.23;46.47
16806;BME280;8520;50.102;20.010;2023-03-13T12:21:13;97424.88;;;15.43;46.25
16806;BME280;8520;50.102;20.010;2023-03-13T12:23:48;97417.72;;;15.35;46.46
16806;BME280;8520;50.102;20.010;2023-03-13T12:26:20;97397.63;;;15.55;45.99
16806;BME280;8520;50.102;20.010;2023-03-13T12:29:02;97383.66;;;16.21;45.02
16806;BME280;8520;50.102;20.010;2023-03-13T12:31:36;97368.63;;;15.64;44.68
16806;BME280;8520;50.102;20.010;2023-03-13T12:34:12;97363.50;;;15.41;44.32
16806;BME280;8520;50.102;20.010;2023-03-13T12:36:45;97375.81;;;15.46;44.37
16806;BME280;8520;50.102;20.010;2023-03-13T12:39:24;97359.47;;;15.69;43.39
16806;BME280;8520;50.102;20.010;2023-03-13T12:42:06;97375.72;;;15.78;43.52
16806;BME280;8520;50.102;20.010;2023-03-13T12:44:38;97376.34;;;15.31;43.33
16806;BME280;8520;50.102;20.010;2023-03-13T12:47:09;97354.13;;;15.31;43.79
16806;BME280;8520;50.102;20.010;2023-03-13T12:50:23;97368.41;;;15.62;43.61
16806;BME280;8520;50.102;20.010;2023-03-13T12:55:57;97357.47;;;16.03;42.77
16806;BME280;8520;50.102;20.010;2023-03-13T12:58:38;97357.09;;;15.60;43.57
16806;BME280;8520;50.102;20.010;2023-03-13T13:01:13;97343.72;;;15.58;43.43
16806;BME280;8520;50.102;20.010;2023-03-13T13:03:49;97345.66;;;15.37;43.29
16806;BME280;8520;50.102;20.010;2023-03-13T13:06:19;97340.94;;;15.71;42.88
16806;BME280;8520;50.102;20.010;2023-03-13T13:09:02;97341.53;;;15.91;42.54
16806;BME280;8520;50.102;20.010;2023-03-13T13:11:47;97347.03;;;15.70;42.82
16806;BME280;8520;50.102;20.010;2023-03-13T13:17:27;97341.97;;;15.95;42.76
16806;BME280;8520;50.102;20.010;2023-03-13T13:19:57;97334.53;;;16.11;42.64
16806;BME280;8520;50.102;20.010;2023-03-13T13:22:46;97340.47;;;15.94;42.83
16806;BME280;8520;50.102;20.010;2023-03-13T13:25:32;97328.50;;;15.86;42.50
16806;BME280;8520;50.102;20.010;2023-03-13T13:31:43;97346.59;;;15.79;43.33
16806;BME280;8520;50.102;20.010;2023-03-13T13:37:26;97361.03;;;14.98;45.72
16806;BME280;8520;50.102;20.010;2023-03-13T13:40:16;97349.59;;;15.15;46.43
16806;BME280;8520;50.102;20.010;2023-03-13T13:42:47;97358.19;;;14.72;47.53
16806;BME280;8520;50.102;20.010;2023-03-13T13:45:30;97352.69;;;14.02;49.50
16806;BME280;8520;50.102;20.010;2023-03-13T13:48:23;97378.22;;;14.32;49.35
16806;BME280;8520;50.102;20.010;2023-03-13T13:51:19;97360.06;;;14.31;49.18
16806;BME280;8520;50.102;20.010;2023-03-13T13:53:53;97353.34;;;13.89;50.48
16806;BME280;8520;50.102;20.010;2023-03-13T13:56:37;97326.34;;;14.27;49.69